KSJT/SJT METAR and TAF weather

Enter ICAO airport designator
Station Type Date Time Source
KSJT METAR 2022/12/04 11:38 UTC NOAA

KSJT 041138Z AUTO 11004KT 10SM SCT024 OVC037 07/M02 A3030 RMK AO2 T00721022


Station Type Date Time Source
KSJT Decoded METAR 2022/12/04 11:38 UTC NOAA

MATHIS FIELD, TX, United States (KSJT) 31-21N 100-30W 581M
Dec 04, 2022 - 06:38 AM EST / 2022.12.04 1138 UTC
Wind: from the ESE (110 degrees) at 5 MPH (4 KT):0
Visibility: 10 mile(s):0
Sky conditions: overcast
Temperature: 45.0 F (7.2 C)
Dew Point: 28.0 F (-2.2 C)
Relative Humidity: 51%
Pressure (altimeter): 30.3 in. Hg (1026 hPa)
ob: KSJT 041138Z AUTO 11004KT 10SM SCT024 OVC037 07/M02 A3030 RMK AO2 T00721022
cycle: 11

Station Type Date Time Source
KSJT TAF 2022/12/04 12:22 UTC NOAA

TAF KSJT 041120Z 0412/0512 VRB03KT P6SM OVC025
FM041700 VRB06KT P6SM BKN015
FM050100 20008KT P6SM BKN008
FM050900 22011KT 3SM BR BKN004

Example: see airport list